sensor_id;sensor_type;location;lat;lon;timestamp;P1;durP1;ratioP1;P2;durP2;ratioP2
1545;SDS011;766;51.502;9.752;2022-12-07T00:01:38;27.60;;;13.80;;
1545;SDS011;766;51.502;9.752;2022-12-07T00:04:09;27.70;;;13.87;;
1545;SDS011;766;51.502;9.752;2022-12-07T00:06:39;23.13;;;13.23;;
1545;SDS011;766;51.502;9.752;2022-12-07T00:09:09;26.57;;;13.27;;
1545;SDS011;766;51.502;9.752;2022-12-07T00:11:39;26.07;;;13.37;;
1545;SDS011;766;51.502;9.752;2022-12-07T00:14:13;25.10;;;12.77;;
1545;SDS011;766;51.502;9.752;2022-12-07T00:16:43;26.57;;;14.33;;
1545;SDS011;766;51.502;9.752;2022-12-07T00:19:12;25.70;;;13.67;;
1545;SDS011;766;51.502;9.752;2022-12-07T00:21:41;26.33;;;13.57;;
1545;SDS011;766;51.502;9.752;2022-12-07T00:24:10;27.37;;;13.63;;
1545;SDS011;766;51.502;9.752;2022-12-07T00:26:40;25.97;;;14.10;;
1545;SDS011;766;51.502;9.752;2022-12-07T00:29:13;23.30;;;11.77;;
1545;SDS011;766;51.502;9.752;2022-12-07T00:31:43;23.33;;;12.60;;
1545;SDS011;766;51.502;9.752;2022-12-07T00:34:13;23.93;;;12.97;;
1545;SDS011;766;51.502;9.752;2022-12-07T00:36:42;25.50;;;13.53;;
1545;SDS011;766;51.502;9.752;2022-12-07T00:39:10;25.10;;;13.40;;
1545;SDS011;766;51.502;9.752;2022-12-07T00:41:39;25.07;;;12.53;;
1545;SDS011;766;51.502;9.752;2022-12-07T00:44:07;25.27;;;12.50;;
1545;SDS011;766;51.502;9.752;2022-12-07T00:46:37;21.90;;;12.90;;
1545;SDS011;766;51.502;9.752;2022-12-07T00:49:05;27.47;;;14.13;;
1545;SDS011;766;51.502;9.752;2022-12-07T00:51:33;27.03;;;13.40;;
1545;SDS011;766;51.502;9.752;2022-12-07T00:54:02;26.23;;;13.07;;
1545;SDS011;766;51.502;9.752;2022-12-07T00:56:31;24.33;;;13.20;;
1545;SDS011;766;51.502;9.752;2022-12-07T00:59:00;28.27;;;13.93;;
1545;SDS011;766;51.502;9.752;2022-12-07T01:01:31;28.00;;;14.43;;
1545;SDS011;766;51.502;9.752;2022-12-07T01:04:02;24.83;;;13.77;;
1545;SDS011;766;51.502;9.752;2022-12-07T01:06:31;27.10;;;14.77;;
1545;SDS011;766;51.502;9.752;2022-12-07T01:09:00;29.17;;;16.30;;
1545;SDS011;766;51.502;9.752;2022-12-07T01:11:31;28.90;;;15.97;;
1545;SDS011;766;51.502;9.752;2022-12-07T01:13:59;30.67;;;15.80;;
1545;SDS011;766;51.502;9.752;2022-12-07T01:16:29;33.27;;;17.13;;
1545;SDS011;766;51.502;9.752;2022-12-07T01:18:59;29.30;;;15.57;;
1545;SDS011;766;51.502;9.752;2022-12-07T01:21:35;28.17;;;15.00;;
1545;SDS011;766;51.502;9.752;2022-12-07T01:24:04;28.07;;;13.93;;
1545;SDS011;766;51.502;9.752;2022-12-07T01:26:35;29.67;;;14.70;;
1545;SDS011;766;51.502;9.752;2022-12-07T01:29:03;28.93;;;14.53;;
1545;SDS011;766;51.502;9.752;2022-12-07T01:31:31;31.93;;;16.63;;
1545;SDS011;766;51.502;9.752;2022-12-07T01:34:01;29.57;;;15.73;;
1545;SDS011;766;51.502;9.752;2022-12-07T01:36:31;28.97;;;14.67;;
1545;SDS011;766;51.502;9.752;2022-12-07T01:39:02;28.87;;;15.33;;
1545;SDS011;766;51.502;9.752;2022-12-07T01:41:34;27.90;;;14.93;;
1545;SDS011;766;51.502;9.752;2022-12-07T01:44:13;27.93;;;14.80;;
1545;SDS011;766;51.502;9.752;2022-12-07T01:46:50;33.07;;;15.13;;
1545;SDS011;766;51.502;9.752;2022-12-07T01:49:24;33.80;;;15.60;;
1545;SDS011;766;51.502;9.752;2022-12-07T01:51:58;34.30;;;16.17;;
1545;SDS011;766;51.502;9.752;2022-12-07T01:54:35;34.27;;;16.73;;
1545;SDS011;766;51.502;9.752;2022-12-07T01:57:05;32.20;;;15.63;;
1545;SDS011;766;51.502;9.752;2022-12-07T01:59:35;37.43;;;16.47;;
1545;SDS011;766;51.502;9.752;2022-12-07T02:02:04;34.33;;;16.53;;
1545;SDS011;766;51.502;9.752;2022-12-07T02:04:37;33.53;;;15.77;;
1545;SDS011;766;51.502;9.752;2022-12-07T02:07:06;38.50;;;18.00;;
1545;SDS011;766;51.502;9.752;2022-12-07T02:09:36;36.17;;;18.02;;
1545;SDS011;766;51.502;9.752;2022-12-07T02:12:05;35.03;;;17.83;;
1545;SDS011;766;51.502;9.752;2022-12-07T02:14:33;35.87;;;16.90;;
1545;SDS011;766;51.502;9.752;2022-12-07T02:17:05;33.97;;;18.00;;
1545;SDS011;766;51.502;9.752;2022-12-07T02:19:51;33.67;;;16.60;;
1545;SDS011;766;51.502;9.752;2022-12-07T02:26:11;40.23;;;17.33;;
1545;SDS011;766;51.502;9.752;2022-12-07T02:29:11;48.50;;;18.87;;
1545;SDS011;766;51.502;9.752;2022-12-07T02:31:55;36.60;;;17.33;;
1545;SDS011;766;51.502;9.752;2022-12-07T02:34:34;38.90;;;17.87;;
1545;SDS011;766;51.502;9.752;2022-12-07T02:37:10;35.43;;;16.57;;
1545;SDS011;766;51.502;9.752;2022-12-07T02:39:48;35.65;;;16.40;;
1545;SDS011;766;51.502;9.752;2022-12-07T02:42:22;37.67;;;17.37;;
1545;SDS011;766;51.502;9.752;2022-12-07T02:44:55;39.77;;;17.67;;
1545;SDS011;766;51.502;9.752;2022-12-07T02:47:24;42.37;;;17.90;;
1545;SDS011;766;51.502;9.752;2022-12-07T02:49:55;43.37;;;19.20;;
1545;SDS011;766;51.502;9.752;2022-12-07T02:52:24;40.40;;;18.67;;
1545;SDS011;766;51.502;9.752;2022-12-07T02:54:52;38.45;;;18.13;;
1545;SDS011;766;51.502;9.752;2022-12-07T02:57:27;42.95;;;18.13;;
1545;SDS011;766;51.502;9.752;2022-12-07T03:00:08;47.77;;;19.10;;
1545;SDS011;766;51.502;9.752;2022-12-07T03:02:42;44.10;;;19.45;;
1545;SDS011;766;51.502;9.752;2022-12-07T03:05:22;46.47;;;20.17;;
1545;SDS011;766;51.502;9.752;2022-12-07T03:08:20;41.13;;;18.37;;
1545;SDS011;766;51.502;9.752;2022-12-07T03:10:54;44.08;;;19.10;;
1545;SDS011;766;51.502;9.752;2022-12-07T03:13:28;40.30;;;17.58;;
1545;SDS011;766;51.502;9.752;2022-12-07T03:16:04;41.13;;;16.73;;
1545;SDS011;766;51.502;9.752;2022-12-07T03:18:37;37.58;;;16.58;;
1545;SDS011;766;51.502;9.752;2022-12-07T03:21:16;39.67;;;16.95;;
1545;SDS011;766;51.502;9.752;2022-12-07T03:23:48;41.53;;;16.30;;
1545;SDS011;766;51.502;9.752;2022-12-07T03:26:20;36.13;;;16.38;;
1545;SDS011;766;51.502;9.752;2022-12-07T03:28:58;37.38;;;16.67;;
1545;SDS011;766;51.502;9.752;2022-12-07T03:31:34;40.20;;;17.05;;
1545;SDS011;766;51.502;9.752;2022-12-07T03:34:07;37.70;;;16.30;;
1545;SDS011;766;51.502;9.752;2022-12-07T03:36:43;33.63;;;15.57;;
1545;SDS011;766;51.502;9.752;2022-12-07T03:39:17;33.10;;;14.77;;
1545;SDS011;766;51.502;9.752;2022-12-07T03:41:50;32.45;;;14.85;;
1545;SDS011;766;51.502;9.752;2022-12-07T03:44:19;32.75;;;15.27;;
1545;SDS011;766;51.502;9.752;2022-12-07T03:46:52;33.33;;;14.82;;
1545;SDS011;766;51.502;9.752;2022-12-07T03:49:30;29.95;;;14.98;;
1545;SDS011;766;51.502;9.752;2022-12-07T03:52:08;28.83;;;14.45;;
1545;SDS011;766;51.502;9.752;2022-12-07T03:54:48;31.02;;;15.32;;
1545;SDS011;766;51.502;9.752;2022-12-07T03:57:21;33.45;;;14.30;;
1545;SDS011;766;51.502;9.752;2022-12-07T03:59:52;33.58;;;16.00;;
1545;SDS011;766;51.502;9.752;2022-12-07T04:02:24;33.92;;;16.67;;
1545;SDS011;766;51.502;9.752;2022-12-07T04:04:55;39.45;;;17.10;;
1545;SDS011;766;51.502;9.752;2022-12-07T04:07:24;36.38;;;17.63;;
1545;SDS011;766;51.502;9.752;2022-12-07T04:09:54;38.60;;;18.08;;
1545;SDS011;766;51.502;9.752;2022-12-07T04:12:22;34.35;;;17.45;;
1545;SDS011;766;51.502;9.752;2022-12-07T04:14:50;38.42;;;19.38;;
1545;SDS011;766;51.502;9.752;2022-12-07T04:17:18;42.30;;;19.83;;
1545;SDS011;766;51.502;9.752;2022-12-07T04:19:48;38.38;;;18.90;;
1545;SDS011;766;51.502;9.752;2022-12-07T04:22:16;41.35;;;19.20;;
1545;SDS011;766;51.502;9.752;2022-12-07T04:24:45;42.10;;;19.92;;
1545;SDS011;766;51.502;9.752;2022-12-07T04:27:13;40.60;;;20.20;;
1545;SDS011;766;51.502;9.752;2022-12-07T04:29:41;39.55;;;19.25;;
1545;SDS011;766;51.502;9.752;2022-12-07T04:32:10;46.00;;;20.33;;
1545;SDS011;766;51.502;9.752;2022-12-07T04:34:38;42.30;;;19.77;;
1545;SDS011;766;51.502;9.752;2022-12-07T04:37:07;35.78;;;19.17;;
1545;SDS011;766;51.502;9.752;2022-12-07T04:39:36;40.42;;;20.10;;
1545;SDS011;766;51.502;9.752;2022-12-07T04:42:04;43.05;;;19.90;;
1545;SDS011;766;51.502;9.752;2022-12-07T04:44:32;38.75;;;19.50;;
1545;SDS011;766;51.502;9.752;2022-12-07T04:47:01;38.53;;;18.85;;
1545;SDS011;766;51.502;9.752;2022-12-07T04:49:30;39.22;;;19.25;;
1545;SDS011;766;51.502;9.752;2022-12-07T04:51:58;36.65;;;18.40;;
1545;SDS011;766;51.502;9.752;2022-12-07T04:54:28;33.60;;;18.77;;
1545;SDS011;766;51.502;9.752;2022-12-07T04:56:56;39.45;;;19.13;;
1545;SDS011;766;51.502;9.752;2022-12-07T04:59:25;34.35;;;17.48;;
1545;SDS011;766;51.502;9.752;2022-12-07T05:01:53;32.25;;;17.40;;
1545;SDS011;766;51.502;9.752;2022-12-07T05:04:21;34.47;;;17.17;;
1545;SDS011;766;51.502;9.752;2022-12-07T05:06:50;29.33;;;16.90;;
1545;SDS011;766;51.502;9.752;2022-12-07T05:09:18;35.13;;;17.27;;
1545;SDS011;766;51.502;9.752;2022-12-07T05:11:48;29.80;;;16.58;;
1545;SDS011;766;51.502;9.752;2022-12-07T05:14:17;33.67;;;17.23;;
1545;SDS011;766;51.502;9.752;2022-12-07T05:16:47;37.97;;;16.35;;
1545;SDS011;766;51.502;9.752;2022-12-07T05:19:17;26.85;;;14.68;;
1545;SDS011;766;51.502;9.752;2022-12-07T05:21:47;27.45;;;15.32;;
1545;SDS011;766;51.502;9.752;2022-12-07T05:24:16;28.38;;;15.48;;
1545;SDS011;766;51.502;9.752;2022-12-07T05:26:44;29.48;;;14.10;;
1545;SDS011;766;51.502;9.752;2022-12-07T05:29:15;25.33;;;13.85;;
1545;SDS011;766;51.502;9.752;2022-12-07T05:31:44;30.48;;;13.95;;
1545;SDS011;766;51.502;9.752;2022-12-07T05:34:13;25.13;;;13.75;;
1545;SDS011;766;51.502;9.752;2022-12-07T05:36:42;24.92;;;13.75;;
1545;SDS011;766;51.502;9.752;2022-12-07T05:39:10;27.88;;;13.70;;
1545;SDS011;766;51.502;9.752;2022-12-07T05:41:38;31.77;;;13.35;;
1545;SDS011;766;51.502;9.752;2022-12-07T05:44:25;26.48;;;12.77;;
1545;SDS011;766;51.502;9.752;2022-12-07T05:46:54;24.80;;;13.70;;
1545;SDS011;766;51.502;9.752;2022-12-07T05:49:22;25.48;;;13.30;;
1545;SDS011;766;51.502;9.752;2022-12-07T05:51:50;24.30;;;13.25;;
1545;SDS011;766;51.502;9.752;2022-12-07T05:54:18;27.30;;;12.48;;
1545;SDS011;766;51.502;9.752;2022-12-07T05:56:47;26.70;;;13.43;;
1545;SDS011;766;51.502;9.752;2022-12-07T05:59:15;20.48;;;11.82;;
1545;SDS011;766;51.502;9.752;2022-12-07T06:01:50;22.95;;;11.80;;
1545;SDS011;766;51.502;9.752;2022-12-07T06:04:20;21.52;;;11.75;;
1545;SDS011;766;51.502;9.752;2022-12-07T06:06:49;31.27;;;11.55;;
1545;SDS011;766;51.502;9.752;2022-12-07T06:09:22;22.27;;;12.40;;
1545;SDS011;766;51.502;9.752;2022-12-07T06:11:51;29.55;;;11.73;;
1545;SDS011;766;51.502;9.752;2022-12-07T06:14:37;29.85;;;11.65;;
1545;SDS011;766;51.502;9.752;2022-12-07T06:17:07;27.38;;;11.73;;
1545;SDS011;766;51.502;9.752;2022-12-07T06:19:35;21.00;;;11.32;;
1545;SDS011;766;51.502;9.752;2022-12-07T06:22:04;26.30;;;12.00;;
1545;SDS011;766;51.502;9.752;2022-12-07T06:24:33;21.80;;;10.65;;
1545;SDS011;766;51.502;9.752;2022-12-07T06:27:04;20.25;;;9.60;;
1545;SDS011;766;51.502;9.752;2022-12-07T06:29:32;19.67;;;8.95;;
1545;SDS011;766;51.502;9.752;2022-12-07T06:32:00;18.13;;;10.68;;
1545;SDS011;766;51.502;9.752;2022-12-07T06:34:30;19.77;;;10.18;;
1545;SDS011;766;51.502;9.752;2022-12-07T06:36:59;24.73;;;10.82;;
1545;SDS011;766;51.502;9.752;2022-12-07T06:39:28;23.70;;;11.38;;
1545;SDS011;766;51.502;9.752;2022-12-07T06:41:56;21.52;;;10.18;;
1545;SDS011;766;51.502;9.752;2022-12-07T06:44:25;22.42;;;11.60;;
1545;SDS011;766;51.502;9.752;2022-12-07T06:46:53;22.67;;;11.57;;
1545;SDS011;766;51.502;9.752;2022-12-07T06:49:43;21.92;;;11.30;;
1545;SDS011;766;51.502;9.752;2022-12-07T06:52:12;18.30;;;10.00;;
1545;SDS011;766;51.502;9.752;2022-12-07T06:54:40;23.75;;;10.85;;
1545;SDS011;766;51.502;9.752;2022-12-07T06:57:08;26.27;;;12.00;;
1545;SDS011;766;51.502;9.752;2022-12-07T06:59:36;26.63;;;14.65;;
1545;SDS011;766;51.502;9.752;2022-12-07T07:02:04;23.25;;;12.20;;
1545;SDS011;766;51.502;9.752;2022-12-07T07:04:33;25.38;;;10.35;;
1545;SDS011;766;51.502;9.752;2022-12-07T07:07:03;23.60;;;10.13;;
1545;SDS011;766;51.502;9.752;2022-12-07T07:09:31;18.55;;;9.82;;
1545;SDS011;766;51.502;9.752;2022-12-07T07:11:59;20.00;;;9.80;;
1545;SDS011;766;51.502;9.752;2022-12-07T07:14:28;19.38;;;10.02;;
1545;SDS011;766;51.502;9.752;2022-12-07T07:16:56;20.27;;;10.32;;
1545;SDS011;766;51.502;9.752;2022-12-07T07:19:24;19.98;;;9.82;;
1545;SDS011;766;51.502;9.752;2022-12-07T07:21:52;18.23;;;9.70;;
1545;SDS011;766;51.502;9.752;2022-12-07T07:24:22;21.63;;;10.50;;
1545;SDS011;766;51.502;9.752;2022-12-07T07:26:53;24.55;;;10.52;;
1545;SDS011;766;51.502;9.752;2022-12-07T07:30:12;17.50;;;8.77;;
1545;SDS011;766;51.502;9.752;2022-12-07T07:32:41;19.83;;;11.35;;
1545;SDS011;766;51.502;9.752;2022-12-07T07:35:09;21.25;;;9.13;;
1545;SDS011;766;51.502;9.752;2022-12-07T07:37:41;20.23;;;9.65;;
1545;SDS011;766;51.502;9.752;2022-12-07T07:40:11;17.02;;;10.02;;
1545;SDS011;766;51.502;9.752;2022-12-07T07:42:40;25.02;;;9.98;;
1545;SDS011;766;51.502;9.752;2022-12-07T07:45:08;23.73;;;9.63;;
1545;SDS011;766;51.502;9.752;2022-12-07T07:47:37;21.00;;;9.88;;
1545;SDS011;766;51.502;9.752;2022-12-07T07:50:10;26.25;;;10.35;;
1545;SDS011;766;51.502;9.752;2022-12-07T07:52:38;20.00;;;9.60;;
1545;SDS011;766;51.502;9.752;2022-12-07T07:55:07;22.30;;;8.88;;
1545;SDS011;766;51.502;9.752;2022-12-07T07:57:38;20.08;;;9.02;;
1545;SDS011;766;51.502;9.752;2022-12-07T08:00:08;20.63;;;9.02;;
1545;SDS011;766;51.502;9.752;2022-12-07T08:02:41;24.48;;;9.02;;
1545;SDS011;766;51.502;9.752;2022-12-07T08:05:11;19.80;;;8.85;;
1545;SDS011;766;51.502;9.752;2022-12-07T08:07:40;16.95;;;8.45;;
1545;SDS011;766;51.502;9.752;2022-12-07T08:10:09;16.52;;;8.75;;
1545;SDS011;766;51.502;9.752;2022-12-07T08:12:41;13.48;;;8.07;;
1545;SDS011;766;51.502;9.752;2022-12-07T08:15:25;17.77;;;7.80;;
1545;SDS011;766;51.502;9.752;2022-12-07T08:17:54;17.15;;;8.10;;
1545;SDS011;766;51.502;9.752;2022-12-07T08:20:22;21.85;;;9.23;;
1545;SDS011;766;51.502;9.752;2022-12-07T08:22:53;14.23;;;8.30;;
1545;SDS011;766;51.502;9.752;2022-12-07T08:25:21;20.67;;;8.98;;
1545;SDS011;766;51.502;9.752;2022-12-07T08:27:51;22.38;;;9.60;;
1545;SDS011;766;51.502;9.752;2022-12-07T08:30:20;17.02;;;8.40;;
1545;SDS011;766;51.502;9.752;2022-12-07T08:32:49;17.10;;;8.15;;
1545;SDS011;766;51.502;9.752;2022-12-07T08:35:17;20.85;;;8.68;;
1545;SDS011;766;51.502;9.752;2022-12-07T08:37:45;17.23;;;8.02;;
1545;SDS011;766;51.502;9.752;2022-12-07T08:40:14;24.52;;;9.25;;
1545;SDS011;766;51.502;9.752;2022-12-07T08:42:48;15.68;;;8.05;;
1545;SDS011;766;51.502;9.752;2022-12-07T08:45:18;16.33;;;8.68;;
1545;SDS011;766;51.502;9.752;2022-12-07T08:47:53;18.80;;;8.27;;
1545;SDS011;766;51.502;9.752;2022-12-07T08:50:25;16.02;;;7.22;;
1545;SDS011;766;51.502;9.752;2022-12-07T08:52:55;16.75;;;8.70;;
1545;SDS011;766;51.502;9.752;2022-12-07T08:55:26;12.70;;;7.03;;
1545;SDS011;766;51.502;9.752;2022-12-07T08:57:56;20.35;;;7.70;;
1545;SDS011;766;51.502;9.752;2022-12-07T09:00:26;18.55;;;8.75;;
1545;SDS011;766;51.502;9.752;2022-12-07T09:02:55;20.65;;;8.63;;
1545;SDS011;766;51.502;9.752;2022-12-07T09:05:23;14.18;;;7.55;;
1545;SDS011;766;51.502;9.752;2022-12-07T09:07:52;14.48;;;8.02;;
1545;SDS011;766;51.502;9.752;2022-12-07T09:10:25;17.05;;;8.15;;
1545;SDS011;766;51.502;9.752;2022-12-07T09:12:53;15.85;;;7.13;;
1545;SDS011;766;51.502;9.752;2022-12-07T09:15:21;18.27;;;7.60;;
1545;SDS011;766;51.502;9.752;2022-12-07T09:17:51;14.63;;;7.25;;
1545;SDS011;766;51.502;9.752;2022-12-07T09:20:19;16.40;;;7.22;;
1545;SDS011;766;51.502;9.752;2022-12-07T09:22:53;11.90;;;5.88;;
1545;SDS011;766;51.502;9.752;2022-12-07T09:25:21;15.43;;;6.78;;
1545;SDS011;766;51.502;9.752;2022-12-07T09:27:54;13.15;;;6.35;;
1545;SDS011;766;51.502;9.752;2022-12-07T09:30:23;10.90;;;6.40;;
1545;SDS011;766;51.502;9.752;2022-12-07T09:32:54;9.80;;;6.07;;
1545;SDS011;766;51.502;9.752;2022-12-07T09:35:25;11.88;;;6.45;;
1545;SDS011;766;51.502;9.752;2022-12-07T09:37:53;12.02;;;6.43;;
1545;SDS011;766;51.502;9.752;2022-12-07T09:40:22;12.05;;;5.80;;
1545;SDS011;766;51.502;9.752;2022-12-07T09:42:52;10.35;;;5.72;;
1545;SDS011;766;51.502;9.752;2022-12-07T09:45:23;9.85;;;5.28;;
1545;SDS011;766;51.502;9.752;2022-12-07T09:47:55;10.65;;;5.85;;
1545;SDS011;766;51.502;9.752;2022-12-07T09:50:25;11.95;;;6.85;;
1545;SDS011;766;51.502;9.752;2022-12-07T09:52:55;13.45;;;6.43;;
1545;SDS011;766;51.502;9.752;2022-12-07T09:55:33;17.08;;;7.20;;
1545;SDS011;766;51.502;9.752;2022-12-07T09:58:03;13.85;;;6.32;;
1545;SDS011;766;51.502;9.752;2022-12-07T10:00:31;9.63;;;6.18;;
1545;SDS011;766;51.502;9.752;2022-12-07T10:03:01;12.23;;;6.55;;
1545;SDS011;766;51.502;9.752;2022-12-07T10:05:30;10.82;;;5.53;;
1545;SDS011;766;51.502;9.752;2022-12-07T10:08:03;17.48;;;5.95;;
1545;SDS011;766;51.502;9.752;2022-12-07T10:10:32;12.27;;;6.25;;
1545;SDS011;766;51.502;9.752;2022-12-07T10:13:05;9.65;;;6.10;;
1545;SDS011;766;51.502;9.752;2022-12-07T10:15:40;10.45;;;5.80;;
1545;SDS011;766;51.502;9.752;2022-12-07T10:18:19;11.20;;;6.18;;
1545;SDS011;766;51.502;9.752;2022-12-07T10:23:58;14.55;;;7.25;;
1545;SDS011;766;51.502;9.752;2022-12-07T10:26:29;12.68;;;6.43;;
1545;SDS011;766;51.502;9.752;2022-12-07T10:28:59;10.05;;;5.15;;
1545;SDS011;766;51.502;9.752;2022-12-07T10:31:29;10.20;;;5.30;;
1545;SDS011;766;51.502;9.752;2022-12-07T10:34:00;11.75;;;5.25;;
1545;SDS011;766;51.502;9.752;2022-12-07T10:36:34;12.23;;;5.50;;
1545;SDS011;766;51.502;9.752;2022-12-07T10:39:11;9.68;;;5.75;;
1545;SDS011;766;51.502;9.752;2022-12-07T10:41:52;14.23;;;5.85;;
1545;SDS011;766;51.502;9.752;2022-12-07T10:44:22;8.35;;;4.82;;
1545;SDS011;766;51.502;9.752;2022-12-07T10:47:00;9.90;;;4.97;;
1545;SDS011;766;51.502;9.752;2022-12-07T10:50:10;13.88;;;6.10;;
1545;SDS011;766;51.502;9.752;2022-12-07T10:52:58;11.98;;;4.90;;
1545;SDS011;766;51.502;9.752;2022-12-07T10:56:01;11.45;;;4.50;;
1545;SDS011;766;51.502;9.752;2022-12-07T10:58:49;9.43;;;4.28;;
1545;SDS011;766;51.502;9.752;2022-12-07T11:01:28;13.93;;;4.45;;
1545;SDS011;766;51.502;9.752;2022-12-07T11:04:14;8.30;;;4.75;;
1545;SDS011;766;51.502;9.752;2022-12-07T11:07:02;8.82;;;4.35;;
1545;SDS011;766;51.502;9.752;2022-12-07T11:09:51;10.10;;;4.68;;
1545;SDS011;766;51.502;9.752;2022-12-07T11:12:47;8.75;;;4.07;;
1545;SDS011;766;51.502;9.752;2022-12-07T11:15:28;11.60;;;4.40;;
1545;SDS011;766;51.502;9.752;2022-12-07T11:18:08;5.95;;;3.85;;
1545;SDS011;766;51.502;9.752;2022-12-07T11:20:41;12.82;;;5.00;;
1545;SDS011;766;51.502;9.752;2022-12-07T11:23:23;11.40;;;4.43;;
1545;SDS011;766;51.502;9.752;2022-12-07T11:26:01;8.02;;;4.07;;
1545;SDS011;766;51.502;9.752;2022-12-07T11:28:41;14.52;;;4.63;;
1545;SDS011;766;51.502;9.752;2022-12-07T11:31:24;8.80;;;4.40;;
1545;SDS011;766;51.502;9.752;2022-12-07T11:34:04;10.52;;;4.22;;
1545;SDS011;766;51.502;9.752;2022-12-07T11:36:40;11.23;;;4.68;;
1545;SDS011;766;51.502;9.752;2022-12-07T11:39:15;18.63;;;5.13;;
1545;SDS011;766;51.502;9.752;2022-12-07T11:41:51;11.88;;;3.85;;
1545;SDS011;766;51.502;9.752;2022-12-07T11:44:26;9.63;;;3.95;;
1545;SDS011;766;51.502;9.752;2022-12-07T11:47:02;9.75;;;4.30;;
1545;SDS011;766;51.502;9.752;2022-12-07T11:49:39;8.90;;;3.95;;
1545;SDS011;766;51.502;9.752;2022-12-07T11:52:13;11.52;;;5.18;;
1545;SDS011;766;51.502;9.752;2022-12-07T11:54:49;7.78;;;4.20;;
1545;SDS011;766;51.502;9.752;2022-12-07T11:57:22;14.35;;;4.85;;
1545;SDS011;766;51.502;9.752;2022-12-07T11:59:56;8.40;;;3.65;;
1545;SDS011;766;51.502;9.752;2022-12-07T12:02:31;8.07;;;4.32;;
1545;SDS011;766;51.502;9.752;2022-12-07T12:05:06;9.07;;;4.13;;
1545;SDS011;766;51.502;9.752;2022-12-07T12:07:42;9.20;;;3.80;;
1545;SDS011;766;51.502;9.752;2022-12-07T12:10:38;10.52;;;4.80;;
1545;SDS011;766;51.502;9.752;2022-12-07T12:13:24;9.32;;;4.97;;
1545;SDS011;766;51.502;9.752;2022-12-07T12:16:46;7.38;;;3.65;;
1545;SDS011;766;51.502;9.752;2022-12-07T12:19:27;12.45;;;4.05;;
1545;SDS011;766;51.502;9.752;2022-12-07T12:22:04;10.20;;;3.88;;
1545;SDS011;766;51.502;9.752;2022-12-07T12:24:39;11.32;;;4.60;;
1545;SDS011;766;51.502;9.752;2022-12-07T12:27:18;11.50;;;4.90;;
1545;SDS011;766;51.502;9.752;2022-12-07T12:29:52;14.52;;;4.88;;
1545;SDS011;766;51.502;9.752;2022-12-07T12:32:23;12.65;;;4.78;;
1545;SDS011;766;51.502;9.752;2022-12-07T12:37:55;10.35;;;4.43;;
1545;SDS011;766;51.502;9.752;2022-12-07T12:40:54;10.15;;;4.20;;
1545;SDS011;766;51.502;9.752;2022-12-07T12:49:30;7.65;;;3.97;;
1545;SDS011;766;51.502;9.752;2022-12-07T12:55:19;12.30;;;4.00;;
1545;SDS011;766;51.502;9.752;2022-12-07T12:58:25;12.65;;;4.78;;
1545;SDS011;766;51.502;9.752;2022-12-07T13:10:41;8.13;;;4.30;;
1545;SDS011;766;51.502;9.752;2022-12-07T13:13:31;12.52;;;4.45;;
1545;SDS011;766;51.502;9.752;2022-12-07T13:22:38;6.95;;;4.25;;
1545;SDS011;766;51.502;9.752;2022-12-07T13:28:15;13.00;;;4.10;;
1545;SDS011;766;51.502;9.752;2022-12-07T13:31:09;6.38;;;4.28;;
1545;SDS011;766;51.502;9.752;2022-12-07T13:34:01;9.43;;;4.07;;
1545;SDS011;766;51.502;9.752;2022-12-07T13:36:31;14.57;;;4.05;;
1545;SDS011;766;51.502;9.752;2022-12-07T13:39:17;8.13;;;4.53;;
1545;SDS011;766;51.502;9.752;2022-12-07T13:41:49;14.10;;;5.38;;
1545;SDS011;766;51.502;9.752;2022-12-07T13:44:19;11.77;;;4.25;;
1545;SDS011;766;51.502;9.752;2022-12-07T13:46:53;12.52;;;4.85;;
1545;SDS011;766;51.502;9.752;2022-12-07T13:49:33;17.15;;;5.97;;
1545;SDS011;766;51.502;9.752;2022-12-07T13:52:11;11.32;;;4.57;;
1545;SDS011;766;51.502;9.752;2022-12-07T13:54:46;13.00;;;4.88;;
1545;SDS011;766;51.502;9.752;2022-12-07T13:57:26;15.80;;;4.10;;
1545;SDS011;766;51.502;9.752;2022-12-07T13:59:57;9.57;;;4.07;;
1545;SDS011;766;51.502;9.752;2022-12-07T14:02:26;13.63;;;5.07;;
1545;SDS011;766;51.502;9.752;2022-12-07T14:05:08;12.85;;;5.13;;
1545;SDS011;766;51.502;9.752;2022-12-07T14:07:48;13.00;;;5.50;;
1545;SDS011;766;51.502;9.752;2022-12-07T14:10:24;13.27;;;4.85;;
1545;SDS011;766;51.502;9.752;2022-12-07T14:12:54;11.57;;;4.38;;
1545;SDS011;766;51.502;9.752;2022-12-07T14:15:24;10.07;;;4.88;;
1545;SDS011;766;51.502;9.752;2022-12-07T14:17:56;11.00;;;4.78;;
1545;SDS011;766;51.502;9.752;2022-12-07T14:20:32;9.30;;;3.80;;
1545;SDS011;766;51.502;9.752;2022-12-07T14:23:03;5.75;;;4.10;;
1545;SDS011;766;51.502;9.752;2022-12-07T14:25:44;11.65;;;4.43;;
1545;SDS011;766;51.502;9.752;2022-12-07T14:28:26;12.68;;;4.25;;
1545;SDS011;766;51.502;9.752;2022-12-07T14:30:55;6.55;;;3.95;;
1545;SDS011;766;51.502;9.752;2022-12-07T14:33:28;14.18;;;3.03;;
1545;SDS011;766;51.502;9.752;2022-12-07T14:35:57;8.57;;;3.75;;
1545;SDS011;766;51.502;9.752;2022-12-07T14:38:32;10.65;;;3.95;;
1545;SDS011;766;51.502;9.752;2022-12-07T14:41:00;8.93;;;3.60;;
1545;SDS011;766;51.502;9.752;2022-12-07T14:43:48;10.40;;;3.58;;
1545;SDS011;766;51.502;9.752;2022-12-07T14:46:37;6.70;;;3.58;;
1545;SDS011;766;51.502;9.752;2022-12-07T14:49:05;9.98;;;3.65;;
1545;SDS011;766;51.502;9.752;2022-12-07T14:51:55;7.55;;;3.33;;
1545;SDS011;766;51.502;9.752;2022-12-07T14:54:43;10.77;;;3.92;;
1545;SDS011;766;51.502;9.752;2022-12-07T14:57:12;6.72;;;3.60;;
1545;SDS011;766;51.502;9.752;2022-12-07T14:59:40;10.63;;;3.88;;
1545;SDS011;766;51.502;9.752;2022-12-07T15:02:11;9.63;;;3.67;;
1545;SDS011;766;51.502;9.752;2022-12-07T15:04:41;11.45;;;4.10;;
1545;SDS011;766;51.502;9.752;2022-12-07T15:07:13;14.95;;;5.25;;
1545;SDS011;766;51.502;9.752;2022-12-07T15:09:45;9.05;;;4.57;;
1545;SDS011;766;51.502;9.752;2022-12-07T15:12:14;11.38;;;4.00;;
1545;SDS011;766;51.502;9.752;2022-12-07T15:14:42;10.80;;;4.30;;
1545;SDS011;766;51.502;9.752;2022-12-07T15:17:10;10.15;;;4.15;;
1545;SDS011;766;51.502;9.752;2022-12-07T15:19:55;11.05;;;4.35;;
1545;SDS011;766;51.502;9.752;2022-12-07T15:22:25;10.85;;;4.47;;
1545;SDS011;766;51.502;9.752;2022-12-07T15:24:53;13.75;;;4.18;;
1545;SDS011;766;51.502;9.752;2022-12-07T15:27:21;13.90;;;5.47;;
1545;SDS011;766;51.502;9.752;2022-12-07T15:29:49;11.23;;;4.70;;
1545;SDS011;766;51.502;9.752;2022-12-07T15:32:18;10.80;;;4.88;;
1545;SDS011;766;51.502;9.752;2022-12-07T15:34:46;8.80;;;3.95;;
1545;SDS011;766;51.502;9.752;2022-12-07T15:37:18;12.90;;;5.20;;
1545;SDS011;766;51.502;9.752;2022-12-07T15:39:47;8.82;;;4.30;;
1545;SDS011;766;51.502;9.752;2022-12-07T15:42:15;8.15;;;4.88;;
1545;SDS011;766;51.502;9.752;2022-12-07T15:44:44;11.30;;;4.85;;
1545;SDS011;766;51.502;9.752;2022-12-07T15:47:30;11.00;;;4.53;;
1545;SDS011;766;51.502;9.752;2022-12-07T15:50:19;10.60;;;4.78;;
1545;SDS011;766;51.502;9.752;2022-12-07T15:52:47;9.70;;;4.68;;
1545;SDS011;766;51.502;9.752;2022-12-07T15:55:17;10.68;;;4.82;;
1545;SDS011;766;51.502;9.752;2022-12-07T15:57:45;8.00;;;4.40;;
1545;SDS011;766;51.502;9.752;2022-12-07T16:00:14;14.85;;;5.13;;
1545;SDS011;766;51.502;9.752;2022-12-07T16:02:43;8.25;;;4.30;;
1545;SDS011;766;51.502;9.752;2022-12-07T16:05:11;15.88;;;5.32;;
1545;SDS011;766;51.502;9.752;2022-12-07T16:07:39;14.25;;;4.70;;
1545;SDS011;766;51.502;9.752;2022-12-07T16:10:09;9.68;;;5.47;;
1545;SDS011;766;51.502;9.752;2022-12-07T16:12:39;10.65;;;5.15;;
1545;SDS011;766;51.502;9.752;2022-12-07T16:15:07;14.10;;;5.50;;
1545;SDS011;766;51.502;9.752;2022-12-07T16:17:36;10.25;;;4.90;;
1545;SDS011;766;51.502;9.752;2022-12-07T16:20:05;9.70;;;5.15;;
1545;SDS011;766;51.502;9.752;2022-12-07T16:22:34;12.82;;;5.88;;
1545;SDS011;766;51.502;9.752;2022-12-07T16:25:03;13.40;;;5.38;;